Nearby METAR Reports for Burr Ridge, IL

 

KMDW - Chicago, Illinois, USA
Distance from station: ENE 8mi, 13km
Updated: Tue, 27-Jun-2017 7:53am MST
Few Clouds
Few Clouds
 Wind from WNW
Wind: WNW 5 mph , 7 km/h
Temperature: 68°F , 20°C
Dew Point: 46°F , 8°C
Humidity: 46%
Barometer: 30.14 inHg , 1020.7 hPa
Clouds: Few Clouds
Visibility: 10 miles , 16 km
Cloud details: Few Clouds 4800 ft
Few Clouds 25000 ft
2017/06/27 14:53 KMDW 271453Z 29004KT 10SM FEW048 FEW250 20/08 A3014 RMK AO2 SLP201 T02000078 50004
KLOT - Romeoville/Chi, Illinois, USA
Distance from station: SW 15mi, 24km
Updated: Tue, 27-Jun-2017 8:35am MST
Clear
Clear
 Wind from NNW
Wind: NNW 7 mph , 11 km/h
Temperature: 70°F , 21°C
Dew Point: 43°F , 6°C
Humidity: 38%
Barometer: 30.14 inHg , 1020.7 hPa
Clouds: Clear
Visibility: 10 miles , 16 km
2017/06/27 15:35 KLOT 271535Z AUTO 33006KT 10SM CLR 21/06 A3014 RMK AO2 T02080061
 
KORD - Chicago O'hare, Illinois, USA
Distance from station: N 16mi, 25km
Updated: Tue, 27-Jun-2017 7:51am MST
Few Clouds
Few Clouds
 Wind from WNW
Wind: WNW 8 mph , 13 km/h
Temperature: 70°F , 21°C
Dew Point: 45°F , 7°C
Humidity: 40%
Barometer: 30.13 inHg , 1020.3 hPa
Clouds: Few Clouds
Visibility: 10 miles , 16 km
Cloud details: Few Clouds 5000 ft
Few Clouds 25000 ft
2017/06/27 14:51 KORD 271451Z 30007KT 10SM FEW050 FEW250 21/07 A3013 RMK AO2 SLP201 T02060072 50004
KDPA - Chicago/Dupage, Illinois, USA
Distance from station: WNW 21mi, 34km
Updated: Tue, 27-Jun-2017 7:52am MST
Clear
Clear
 Wind from NW
Wind: NW 7 mph , 11 km/h
Temperature: 66°F , 19°C
Dew Point: 48°F , 9°C
Humidity: 52%
Barometer: 30.14 inHg , 1020.7 hPa
Clouds: Clear
Visibility: 10 miles , 16 km
2017/06/27 14:52 KDPA 271452Z 31006KT 10SM CLR 19/09 A3014 RMK AO2 SLP204 T01940089 50004
 
KJOT - Joliet, Illinois, USA
Distance from station: SW 22mi, 36km
Updated: Tue, 27-Jun-2017 8:35am MST
Clear
Clear
 Wind from NW
Wind: NW 5 mph , 7 km/h
Temperature: 70°F , 21°C
Dew Point: 48°F , 9°C
Humidity: 46%
Barometer: 30.15 inHg , 1021 hPa
Clouds: Clear
Visibility: 10 miles , 16 km
2017/06/27 15:35 KJOT 271535Z AUTO 31004KT 10SM CLR 21/09 A3015 RMK AO2 T02140088
KIGQ - Chicago/Lansing, Illinois, USA
Distance from station: SE 24mi, 39km
Updated: Tue, 27-Jun-2017 8:35am MST
Partly cloudy
Partly cloudy
 Wind from W
Wind: W 12 mph , 19 km/h, Gust: 18 mph , 30 km/h
Temperature: 68°F , 20°C
Dew Point: 45°F , 7°C
Humidity: 43%
Barometer: 30.15 inHg , 1021 hPa
Clouds: Partly cloudy
Visibility: 10 miles , 16 km
Cloud details: Partly cloudy 5000 ft
2017/06/27 15:35 KIGQ 271535Z AUTO 27010G16KT 10SM SCT050 20/07 A3015 RMK AO2 T02040067
 
KPWK - Palwaukee, Illinois, USA
Distance from station: N 25mi, 40km
Updated: Tue, 27-Jun-2017 7:52am MST
Clear
Clear
 Wind from WNW
Wind: WNW 9 mph , 15 km/h
Temperature: 68°F , 20°C
Dew Point: 48°F , 9°C
Humidity: 49%
Barometer: 30.14 inHg , 1020.7 hPa
Clouds: Clear
Visibility: 10 miles , 16 km
2017/06/27 14:52 KPWK 271452Z 30008KT 10SM CLR 20/09 A3014 RMK AO2 SLP205 T02000094 50002
KGYY - Gary Regional, Indiana, USA
Distance from station: ESE 27mi, 43km
Updated: Tue, 27-Jun-2017 7:45am MST
Few Clouds
Few Clouds
 Wind from WNW
Wind: WNW 10 mph , 17 km/h
Temperature: 70°F , 21°C
Dew Point: 43°F , 6°C
Humidity: 38%
Barometer: 30.15 inHg , 1021 hPa
Clouds: Few Clouds
Visibility: 20 miles , 32 km
Cloud details: Few Clouds 4000 ft
2017/06/27 14:45 KGYY 271445Z 29009KT 20SM FEW040 21/06 A3015
 
KARR - Chicago/Aurora, Illinois, USA
Distance from station: W 30mi, 48km
Updated: Tue, 27-Jun-2017 7:52am MST
Clear
Clear
 Wind from W
Wind: W 7 mph , 11 km/h
Temperature: 68°F , 20°C
Dew Point: 48°F , 9°C
Humidity: 49%
Barometer: 30.16 inHg , 1021.3 hPa
Clouds: Clear
Visibility: 10 miles , 16 km
2017/06/27 14:52 KARR 271452Z 28006KT 10SM CLR 20/09 A3016 RMK AO2 SLP210 T02000089 50003
KC09 - Morris-Washburn, Illinois, USA
Distance from station: SW 35mi, 56km
Updated: Tue, 27-Jun-2017 8:35am MST
Partly cloudy
Partly cloudy
 Wind from W
Wind: W 10 mph , 17 km/h
Temperature: 70°F , 21°C
Dew Point: 46°F , 8°C
Humidity: 43%
Barometer: 30.14 inHg , 1020.7 hPa
Clouds: Partly cloudy
Visibility: 10 miles , 16 km
Cloud details: Partly cloudy 5000 ft
2017/06/27 15:35 KC09 271535Z AUTO 27009KT 10SM SCT050 21/08 A3014 RMK AO2 T02060080
 
KDKB - De Kalb, Illinois, USA
Distance from station: WNW 43mi, 69km
Updated: Tue, 27-Jun-2017 8:35am MST
Clear
Clear
 Wind from W
Wind: W 8 mph , 13 km/h
Temperature: 68°F , 20°C
Dew Point: 46°F , 8°C
Humidity: 46%
Barometer: 30.15 inHg , 1021 hPa
Clouds: Clear
Visibility: 10 miles , 16 km
2017/06/27 15:35 KDKB 271535Z AUTO 28007KT 10SM CLR 20/08 A3015 RMK AO2 T02030079
KUGN - Waukegan, Illinois, USA
Distance from station: N 46mi, 73km
Updated: Tue, 27-Jun-2017 7:55am MST
Clear
Clear
 Wind from varies
Wind: varies 6 mph , 9 km/h
Temperature: 68°F , 20°C
Dew Point: 50°F , 10°C
Humidity: 53%
Barometer: 30.12 inHg , 1020 hPa
Clouds: Clear
Visibility: 10 miles , 16 km
2017/06/27 14:55 KUGN 271455Z VRB05KT 10SM CLR 20/10 A3012 RMK AO2 SLP193 T02000100 50003
 
KIKK - Kankakee, Illinois, USA
Distance from station: S 48mi, 77km
Updated: Tue, 27-Jun-2017 8:35am MST
Clear
Clear
 Wind from NW
Wind: NW 8 mph , 13 km/h
Temperature: 68°F , 20°C
Dew Point: 48°F , 9°C
Humidity: 49%
Barometer: 30.17 inHg , 1021.7 hPa
Clouds: Clear
Visibility: 10 miles , 16 km
2017/06/27 15:35 KIKK 271535Z AUTO 31007KT 10SM CLR 20/09 A3017 RMK AO2 T02010091